South Killingly, Connecticut
Current Conditions -  °F | °C
As of 8:52 PM on Wednesday 26 Nov 2014 (Local Time) from KIJD Reporting Station
Moderate Rain Moderate Rain  
Wind Chill: 27°   Ceiling: 1500
Heat Index: 35°   Visibility: 3mi
Dew Point: 32°   Wind: 10mph
Humidity: 89%   Direction: 360°N
Pressure: 29.71"   Gusts: NA
Location:  41.7938°N, 71.8615°W
Report Text: KIJD 270152Z AUTO 36009KT 3SM RA BR OVC015 02/00 A2971 RMK AO2 RAE15B34SNB15E46 SLP063 P0004 T00170000
Loading
Personal Weather Stations






























Interactive Weather Map New forecast layout! Learn more

10-Day Weather Forecast

Advertisements
Track Severe Weather on mobile